sensor_id;sensor_type;location;lat;lon;timestamp;P1;durP1;ratioP1;P2;durP2;ratioP2
68310;SDS011;55157;51.036;17.058;2024-02-26T00:02:04;59.75;;;29.67;;
68310;SDS011;55157;51.036;17.058;2024-02-26T00:04:29;59.33;;;29.95;;
68310;SDS011;55157;51.036;17.058;2024-02-26T00:06:55;56.30;;;28.30;;
68310;SDS011;55157;51.036;17.058;2024-02-26T00:09:21;50.97;;;28.83;;
68310;SDS011;55157;51.036;17.058;2024-02-26T00:11:47;64.75;;;29.55;;
68310;SDS011;55157;51.036;17.058;2024-02-26T00:14:12;59.35;;;28.58;;
68310;SDS011;55157;51.036;17.058;2024-02-26T00:16:39;56.08;;;26.17;;
68310;SDS011;55157;51.036;17.058;2024-02-26T00:19:05;55.80;;;28.77;;
68310;SDS011;55157;51.036;17.058;2024-02-26T00:21:30;55.30;;;27.80;;
68310;SDS011;55157;51.036;17.058;2024-02-26T00:23:55;59.47;;;28.73;;
68310;SDS011;55157;51.036;17.058;2024-02-26T00:26:22;62.72;;;28.77;;
68310;SDS011;55157;51.036;17.058;2024-02-26T00:28:47;62.40;;;31.05;;
68310;SDS011;55157;51.036;17.058;2024-02-26T00:31:12;60.95;;;31.02;;
68310;SDS011;55157;51.036;17.058;2024-02-26T00:33:38;67.53;;;32.65;;
68310;SDS011;55157;51.036;17.058;2024-02-26T00:36:03;62.80;;;32.65;;
68310;SDS011;55157;51.036;17.058;2024-02-26T00:38:29;68.15;;;33.90;;
68310;SDS011;55157;51.036;17.058;2024-02-26T00:40:54;79.80;;;38.70;;
68310;SDS011;55157;51.036;17.058;2024-02-26T00:43:21;81.25;;;38.78;;
68310;SDS011;55157;51.036;17.058;2024-02-26T00:45:46;83.68;;;42.03;;
68310;SDS011;55157;51.036;17.058;2024-02-26T00:48:11;90.00;;;42.58;;
68310;SDS011;55157;51.036;17.058;2024-02-26T00:50:36;96.45;;;44.72;;
68310;SDS011;55157;51.036;17.058;2024-02-26T00:53:02;88.88;;;42.42;;
68310;SDS011;55157;51.036;17.058;2024-02-26T00:55:27;94.57;;;45.20;;
68310;SDS011;55157;51.036;17.058;2024-02-26T00:57:52;98.32;;;47.95;;
68310;SDS011;55157;51.036;17.058;2024-02-26T01:00:19;95.57;;;44.88;;
68310;SDS011;55157;51.036;17.058;2024-02-26T01:02:44;94.43;;;46.03;;
68310;SDS011;55157;51.036;17.058;2024-02-26T01:05:10;80.13;;;42.58;;
68310;SDS011;55157;51.036;17.058;2024-02-26T01:07:35;81.88;;;41.83;;
68310;SDS011;55157;51.036;17.058;2024-02-26T01:10:00;86.30;;;42.97;;
68310;SDS011;55157;51.036;17.058;2024-02-26T01:12:25;88.38;;;42.50;;
68310;SDS011;55157;51.036;17.058;2024-02-26T01:14:51;89.00;;;43.97;;
68310;SDS011;55157;51.036;17.058;2024-02-26T01:17:18;81.65;;;41.40;;
68310;SDS011;55157;51.036;17.058;2024-02-26T01:19:43;80.70;;;40.70;;
68310;SDS011;55157;51.036;17.058;2024-02-26T01:22:08;77.72;;;39.58;;
68310;SDS011;55157;51.036;17.058;2024-02-26T01:24:33;76.90;;;40.72;;
68310;SDS011;55157;51.036;17.058;2024-02-26T01:26:59;75.65;;;39.88;;
68310;SDS011;55157;51.036;17.058;2024-02-26T01:29:24;76.18;;;40.10;;
68310;SDS011;55157;51.036;17.058;2024-02-26T01:31:49;70.20;;;39.30;;
68310;SDS011;55157;51.036;17.058;2024-02-26T01:34:16;79.30;;;38.95;;
68310;SDS011;55157;51.036;17.058;2024-02-26T01:36:41;70.82;;;38.78;;
68310;SDS011;55157;51.036;17.058;2024-02-26T01:39:06;67.30;;;35.80;;
68310;SDS011;55157;51.036;17.058;2024-02-26T01:41:32;68.18;;;36.90;;
68310;SDS011;55157;51.036;17.058;2024-02-26T01:43:57;72.65;;;36.47;;
68310;SDS011;55157;51.036;17.058;2024-02-26T01:46:22;72.68;;;37.97;;
68310;SDS011;55157;51.036;17.058;2024-02-26T01:48:48;63.08;;;34.85;;
68310;SDS011;55157;51.036;17.058;2024-02-26T01:51:15;71.90;;;36.55;;
68310;SDS011;55157;51.036;17.058;2024-02-26T01:53:40;72.18;;;35.83;;
68310;SDS011;55157;51.036;17.058;2024-02-26T01:56:06;64.40;;;33.35;;
68310;SDS011;55157;51.036;17.058;2024-02-26T01:58:31;66.13;;;34.63;;
68310;SDS011;55157;51.036;17.058;2024-02-26T02:00:57;66.00;;;33.72;;
68310;SDS011;55157;51.036;17.058;2024-02-26T02:03:22;64.57;;;33.85;;
68310;SDS011;55157;51.036;17.058;2024-02-26T02:05:48;60.72;;;33.92;;
68310;SDS011;55157;51.036;17.058;2024-02-26T02:08:15;67.15;;;34.53;;
68310;SDS011;55157;51.036;17.058;2024-02-26T02:10:40;63.08;;;31.80;;
68310;SDS011;55157;51.036;17.058;2024-02-26T02:13:06;65.65;;;32.33;;
68310;SDS011;55157;51.036;17.058;2024-02-26T02:15:31;66.28;;;35.05;;
68310;SDS011;55157;51.036;17.058;2024-02-26T02:17:56;56.30;;;30.77;;
68310;SDS011;55157;51.036;17.058;2024-02-26T02:20:25;58.05;;;30.98;;
68310;SDS011;55157;51.036;17.058;2024-02-26T02:22:51;56.72;;;31.42;;
68310;SDS011;55157;51.036;17.058;2024-02-26T02:25:16;58.47;;;31.48;;
68310;SDS011;55157;51.036;17.058;2024-02-26T02:27:41;62.88;;;30.95;;
68310;SDS011;55157;51.036;17.058;2024-02-26T02:30:07;55.17;;;30.25;;
68310;SDS011;55157;51.036;17.058;2024-02-26T02:32:33;62.10;;;31.45;;
68310;SDS011;55157;51.036;17.058;2024-02-26T02:34:59;59.15;;;32.83;;
68310;SDS011;55157;51.036;17.058;2024-02-26T02:37:26;56.85;;;30.48;;
68310;SDS011;55157;51.036;17.058;2024-02-26T02:39:51;56.13;;;28.88;;
68310;SDS011;55157;51.036;17.058;2024-02-26T02:42:16;51.25;;;28.40;;
68310;SDS011;55157;51.036;17.058;2024-02-26T02:44:41;54.55;;;28.92;;
68310;SDS011;55157;51.036;17.058;2024-02-26T02:47:07;55.35;;;30.42;;
68310;SDS011;55157;51.036;17.058;2024-02-26T02:49:32;50.92;;;28.08;;
68310;SDS011;55157;51.036;17.058;2024-02-26T02:51:58;51.92;;;27.95;;
68310;SDS011;55157;51.036;17.058;2024-02-26T02:54:24;53.55;;;28.10;;
68310;SDS011;55157;51.036;17.058;2024-02-26T02:56:50;53.15;;;26.85;;
68310;SDS011;55157;51.036;17.058;2024-02-26T02:59:15;49.50;;;27.65;;
68310;SDS011;55157;51.036;17.058;2024-02-26T03:01:42;52.72;;;26.50;;
68310;SDS011;55157;51.036;17.058;2024-02-26T03:04:07;48.20;;;27.65;;
68310;SDS011;55157;51.036;17.058;2024-02-26T03:06:32;47.08;;;25.77;;
68310;SDS011;55157;51.036;17.058;2024-02-26T03:08:57;57.17;;;29.98;;
68310;SDS011;55157;51.036;17.058;2024-02-26T03:11:24;45.33;;;24.83;;
68310;SDS011;55157;51.036;17.058;2024-02-26T03:13:49;52.63;;;25.60;;
68310;SDS011;55157;51.036;17.058;2024-02-26T03:16:14;48.08;;;25.75;;
68310;SDS011;55157;51.036;17.058;2024-02-26T03:18:41;57.05;;;28.35;;
68310;SDS011;55157;51.036;17.058;2024-02-26T03:21:07;49.35;;;26.10;;
68310;SDS011;55157;51.036;17.058;2024-02-26T03:23:32;55.55;;;27.95;;
68310;SDS011;55157;51.036;17.058;2024-02-26T03:25:58;47.97;;;25.40;;
68310;SDS011;55157;51.036;17.058;2024-02-26T03:28:24;44.50;;;25.92;;
68310;SDS011;55157;51.036;17.058;2024-02-26T03:30:50;48.85;;;25.13;;
68310;SDS011;55157;51.036;17.058;2024-02-26T03:33:15;46.35;;;25.08;;
68310;SDS011;55157;51.036;17.058;2024-02-26T03:35:40;41.47;;;24.83;;
68310;SDS011;55157;51.036;17.058;2024-02-26T03:38:05;40.47;;;22.55;;
68310;SDS011;55157;51.036;17.058;2024-02-26T03:40:31;40.28;;;22.15;;
68310;SDS011;55157;51.036;17.058;2024-02-26T03:42:56;45.33;;;22.75;;
68310;SDS011;55157;51.036;17.058;2024-02-26T03:45:23;39.83;;;23.23;;
68310;SDS011;55157;51.036;17.058;2024-02-26T03:47:48;35.10;;;20.77;;
68310;SDS011;55157;51.036;17.058;2024-02-26T03:50:13;35.15;;;19.85;;
68310;SDS011;55157;51.036;17.058;2024-02-26T03:52:38;38.70;;;20.50;;
68310;SDS011;55157;51.036;17.058;2024-02-26T03:55:04;41.08;;;21.33;;
68310;SDS011;55157;51.036;17.058;2024-02-26T03:57:29;39.47;;;20.75;;
68310;SDS011;55157;51.036;17.058;2024-02-26T03:59:55;35.65;;;20.25;;
68310;SDS011;55157;51.036;17.058;2024-02-26T04:02:22;36.83;;;19.92;;
68310;SDS011;55157;51.036;17.058;2024-02-26T04:04:47;36.50;;;19.05;;
68310;SDS011;55157;51.036;17.058;2024-02-26T04:07:13;39.95;;;20.42;;
68310;SDS011;55157;51.036;17.058;2024-02-26T04:09:38;35.75;;;19.17;;
68310;SDS011;55157;51.036;17.058;2024-02-26T04:12:03;33.03;;;19.00;;
68310;SDS011;55157;51.036;17.058;2024-02-26T04:14:29;34.67;;;18.88;;
68310;SDS011;55157;51.036;17.058;2024-02-26T04:16:54;33.50;;;18.27;;
68310;SDS011;55157;51.036;17.058;2024-02-26T04:19:21;33.72;;;19.42;;
68310;SDS011;55157;51.036;17.058;2024-02-26T04:21:46;33.90;;;17.70;;
68310;SDS011;55157;51.036;17.058;2024-02-26T04:24:11;32.38;;;19.25;;
68310;SDS011;55157;51.036;17.058;2024-02-26T04:26:37;32.22;;;17.85;;
68310;SDS011;55157;51.036;17.058;2024-02-26T04:29:02;38.25;;;19.70;;
68310;SDS011;55157;51.036;17.058;2024-02-26T04:31:27;35.50;;;19.05;;
68310;SDS011;55157;51.036;17.058;2024-02-26T04:33:53;34.50;;;17.83;;
68310;SDS011;55157;51.036;17.058;2024-02-26T04:36:19;33.22;;;17.70;;
68310;SDS011;55157;51.036;17.058;2024-02-26T04:38:44;32.47;;;17.70;;
68310;SDS011;55157;51.036;17.058;2024-02-26T04:41:10;32.67;;;16.98;;
68310;SDS011;55157;51.036;17.058;2024-02-26T04:43:35;36.40;;;17.85;;
68310;SDS011;55157;51.036;17.058;2024-02-26T04:46:00;31.65;;;18.45;;
68310;SDS011;55157;51.036;17.058;2024-02-26T04:48:27;34.40;;;18.60;;
68310;SDS011;55157;51.036;17.058;2024-02-26T04:50:52;32.50;;;17.80;;
68310;SDS011;55157;51.036;17.058;2024-02-26T04:53:19;42.05;;;18.60;;
68310;SDS011;55157;51.036;17.058;2024-02-26T04:55:44;29.55;;;17.15;;
68310;SDS011;55157;51.036;17.058;2024-02-26T04:58:09;30.88;;;17.83;;
68310;SDS011;55157;51.036;17.058;2024-02-26T05:00:34;33.28;;;18.77;;
68310;SDS011;55157;51.036;17.058;2024-02-26T05:03:00;36.58;;;18.88;;
68310;SDS011;55157;51.036;17.058;2024-02-26T05:05:25;40.55;;;19.40;;
68310;SDS011;55157;51.036;17.058;2024-02-26T05:07:50;39.40;;;18.88;;
68310;SDS011;55157;51.036;17.058;2024-02-26T05:10:17;42.33;;;20.50;;
68310;SDS011;55157;51.036;17.058;2024-02-26T05:12:43;35.55;;;17.45;;
68310;SDS011;55157;51.036;17.058;2024-02-26T05:15:09;32.88;;;19.13;;
68310;SDS011;55157;51.036;17.058;2024-02-26T05:17:34;39.65;;;18.58;;
68310;SDS011;55157;51.036;17.058;2024-02-26T05:19:59;38.28;;;21.05;;
68310;SDS011;55157;51.036;17.058;2024-02-26T05:22:24;40.80;;;20.00;;
68310;SDS011;55157;51.036;17.058;2024-02-26T05:24:50;41.78;;;22.40;;
68310;SDS011;55157;51.036;17.058;2024-02-26T05:27:16;47.78;;;23.95;;
68310;SDS011;55157;51.036;17.058;2024-02-26T05:29:42;43.10;;;23.52;;
68310;SDS011;55157;51.036;17.058;2024-02-26T05:32:07;43.63;;;21.45;;
68310;SDS011;55157;51.036;17.058;2024-02-26T05:34:32;50.17;;;29.10;;
68310;SDS011;55157;51.036;17.058;2024-02-26T05:36:57;53.85;;;30.88;;
68310;SDS011;55157;51.036;17.058;2024-02-26T05:39:23;54.20;;;28.00;;
68310;SDS011;55157;51.036;17.058;2024-02-26T05:41:48;73.00;;;41.92;;
68310;SDS011;55157;51.036;17.058;2024-02-26T05:44:14;62.63;;;36.75;;
68310;SDS011;55157;51.036;17.058;2024-02-26T05:46:40;63.30;;;35.72;;
68310;SDS011;55157;51.036;17.058;2024-02-26T05:49:05;60.95;;;34.20;;
68310;SDS011;55157;51.036;17.058;2024-02-26T05:51:30;54.10;;;31.92;;
68310;SDS011;55157;51.036;17.058;2024-02-26T05:53:55;57.05;;;30.75;;
68310;SDS011;55157;51.036;17.058;2024-02-26T05:56:21;52.33;;;28.73;;
68310;SDS011;55157;51.036;17.058;2024-02-26T05:58:46;47.35;;;28.48;;
68310;SDS011;55157;51.036;17.058;2024-02-26T06:01:13;63.50;;;33.92;;
68310;SDS011;55157;51.036;17.058;2024-02-26T06:03:38;63.38;;;32.47;;
68310;SDS011;55157;51.036;17.058;2024-02-26T06:06:03;68.97;;;35.45;;
68310;SDS011;55157;51.036;17.058;2024-02-26T06:08:29;77.63;;;37.00;;
68310;SDS011;55157;51.036;17.058;2024-02-26T06:10:54;71.25;;;34.67;;
68310;SDS011;55157;51.036;17.058;2024-02-26T06:13:19;81.88;;;35.95;;
68310;SDS011;55157;51.036;17.058;2024-02-26T06:15:45;76.15;;;29.52;;
68310;SDS011;55157;51.036;17.058;2024-02-26T06:18:11;59.03;;;29.23;;
68310;SDS011;55157;51.036;17.058;2024-02-26T06:20:36;52.00;;;28.33;;
68310;SDS011;55157;51.036;17.058;2024-02-26T06:23:02;56.00;;;27.20;;
68310;SDS011;55157;51.036;17.058;2024-02-26T06:25:27;57.10;;;26.83;;
68310;SDS011;55157;51.036;17.058;2024-02-26T06:27:52;49.58;;;24.85;;
68310;SDS011;55157;51.036;17.058;2024-02-26T06:30:17;51.88;;;24.90;;
68310;SDS011;55157;51.036;17.058;2024-02-26T06:32:43;47.92;;;25.52;;
68310;SDS011;55157;51.036;17.058;2024-02-26T06:35:09;50.03;;;27.02;;
68310;SDS011;55157;51.036;17.058;2024-02-26T06:37:35;45.78;;;26.90;;
68310;SDS011;55157;51.036;17.058;2024-02-26T06:40:00;52.17;;;28.67;;
68310;SDS011;55157;51.036;17.058;2024-02-26T06:42:25;57.03;;;30.25;;
68310;SDS011;55157;51.036;17.058;2024-02-26T06:44:51;55.03;;;28.15;;
68310;SDS011;55157;51.036;17.058;2024-02-26T06:47:16;50.38;;;29.60;;
68310;SDS011;55157;51.036;17.058;2024-02-26T06:49:41;48.85;;;30.90;;
68310;SDS011;55157;51.036;17.058;2024-02-26T06:52:08;56.97;;;30.88;;
68310;SDS011;55157;51.036;17.058;2024-02-26T06:54:33;50.17;;;29.73;;
68310;SDS011;55157;51.036;17.058;2024-02-26T06:56:59;46.30;;;29.55;;
68310;SDS011;55157;51.036;17.058;2024-02-26T06:59:24;47.47;;;29.65;;
68310;SDS011;55157;51.036;17.058;2024-02-26T07:01:49;62.13;;;32.60;;
68310;SDS011;55157;51.036;17.058;2024-02-26T07:04:14;48.50;;;30.73;;
68310;SDS011;55157;51.036;17.058;2024-02-26T07:06:40;54.75;;;30.73;;
68310;SDS011;55157;51.036;17.058;2024-02-26T07:09:06;47.40;;;32.08;;
68310;SDS011;55157;51.036;17.058;2024-02-26T07:11:32;51.55;;;31.55;;
68310;SDS011;55157;51.036;17.058;2024-02-26T07:13:57;52.55;;;32.13;;
68310;SDS011;55157;51.036;17.058;2024-02-26T07:16:22;51.30;;;31.00;;
68310;SDS011;55157;51.036;17.058;2024-02-26T07:18:47;51.22;;;31.15;;
68310;SDS011;55157;51.036;17.058;2024-02-26T07:21:13;47.40;;;30.25;;
68310;SDS011;55157;51.036;17.058;2024-02-26T07:23:38;49.67;;;28.73;;
68310;SDS011;55157;51.036;17.058;2024-02-26T07:26:05;43.53;;;29.35;;
68310;SDS011;55157;51.036;17.058;2024-02-26T07:28:30;45.20;;;27.90;;
68310;SDS011;55157;51.036;17.058;2024-02-26T07:30:55;43.92;;;26.77;;
68310;SDS011;55157;51.036;17.058;2024-02-26T07:33:20;41.60;;;26.08;;
68310;SDS011;55157;51.036;17.058;2024-02-26T07:35:46;53.60;;;25.65;;
68310;SDS011;55157;51.036;17.058;2024-02-26T07:38:11;43.70;;;26.73;;
68310;SDS011;55157;51.036;17.058;2024-02-26T07:40:36;44.72;;;26.95;;
68310;SDS011;55157;51.036;17.058;2024-02-26T07:43:03;42.88;;;25.30;;
68310;SDS011;55157;51.036;17.058;2024-02-26T07:45:28;42.33;;;25.17;;
68310;SDS011;55157;51.036;17.058;2024-02-26T07:47:54;40.28;;;23.85;;
68310;SDS011;55157;51.036;17.058;2024-02-26T07:50:19;31.83;;;22.75;;
68310;SDS011;55157;51.036;17.058;2024-02-26T07:52:45;36.78;;;22.70;;
68310;SDS011;55157;51.036;17.058;2024-02-26T07:55:10;34.55;;;22.85;;
68310;SDS011;55157;51.036;17.058;2024-02-26T07:57:35;35.05;;;21.90;;
68310;SDS011;55157;51.036;17.058;2024-02-26T08:00:02;33.38;;;21.33;;
68310;SDS011;55157;51.036;17.058;2024-02-26T08:02:28;28.98;;;20.60;;
68310;SDS011;55157;51.036;17.058;2024-02-26T08:04:53;30.92;;;21.75;;
68310;SDS011;55157;51.036;17.058;2024-02-26T08:07:19;35.22;;;22.23;;
68310;SDS011;55157;51.036;17.058;2024-02-26T08:09:44;30.95;;;20.92;;
68310;SDS011;55157;51.036;17.058;2024-02-26T08:12:09;29.42;;;20.20;;
68310;SDS011;55157;51.036;17.058;2024-02-26T08:14:34;29.73;;;19.40;;
68310;SDS011;55157;51.036;17.058;2024-02-26T08:17:01;30.42;;;18.13;;
68310;SDS011;55157;51.036;17.058;2024-02-26T08:19:26;32.90;;;19.85;;
68310;SDS011;55157;51.036;17.058;2024-02-26T08:21:52;31.35;;;18.50;;
68310;SDS011;55157;51.036;17.058;2024-02-26T08:24:17;27.70;;;16.77;;
68310;SDS011;55157;51.036;17.058;2024-02-26T08:26:42;23.15;;;15.63;;
68310;SDS011;55157;51.036;17.058;2024-02-26T08:29:07;39.63;;;16.90;;
68310;SDS011;55157;51.036;17.058;2024-02-26T08:31:33;23.25;;;14.95;;
68310;SDS011;55157;51.036;17.058;2024-02-26T08:33:59;26.90;;;15.40;;
68310;SDS011;55157;51.036;17.058;2024-02-26T08:36:25;28.85;;;14.82;;
68310;SDS011;55157;51.036;17.058;2024-02-26T08:38:50;23.95;;;13.30;;
68310;SDS011;55157;51.036;17.058;2024-02-26T08:41:15;22.38;;;14.02;;
68310;SDS011;55157;51.036;17.058;2024-02-26T08:43:40;20.58;;;12.32;;
68310;SDS011;55157;51.036;17.058;2024-02-26T08:46:08;18.90;;;12.52;;
68310;SDS011;55157;51.036;17.058;2024-02-26T08:48:33;25.45;;;15.57;;
68310;SDS011;55157;51.036;17.058;2024-02-26T08:51:00;33.92;;;17.38;;
68310;SDS011;55157;51.036;17.058;2024-02-26T08:53:25;21.92;;;12.80;;
68310;SDS011;55157;51.036;17.058;2024-02-26T08:55:50;18.70;;;11.10;;
68310;SDS011;55157;51.036;17.058;2024-02-26T08:58:15;16.42;;;9.70;;
68310;SDS011;55157;51.036;17.058;2024-02-26T09:00:41;14.35;;;9.75;;
68310;SDS011;55157;51.036;17.058;2024-02-26T09:03:06;21.98;;;10.80;;
68310;SDS011;55157;51.036;17.058;2024-02-26T09:05:31;22.58;;;14.48;;
68310;SDS011;55157;51.036;17.058;2024-02-26T09:07:58;20.02;;;11.07;;
68310;SDS011;55157;51.036;17.058;2024-02-26T09:10:23;19.70;;;10.40;;
68310;SDS011;55157;51.036;17.058;2024-02-26T09:12:48;15.38;;;10.13;;
68310;SDS011;55157;51.036;17.058;2024-02-26T09:15:14;20.17;;;10.38;;
68310;SDS011;55157;51.036;17.058;2024-02-26T09:17:39;15.48;;;8.98;;
68310;SDS011;55157;51.036;17.058;2024-02-26T09:20:05;14.23;;;9.60;;
68310;SDS011;55157;51.036;17.058;2024-02-26T09:22:30;17.77;;;8.70;;
68310;SDS011;55157;51.036;17.058;2024-02-26T09:24:57;14.63;;;9.38;;
68310;SDS011;55157;51.036;17.058;2024-02-26T09:27:22;15.93;;;9.45;;
68310;SDS011;55157;51.036;17.058;2024-02-26T09:29:47;17.98;;;10.05;;
68310;SDS011;55157;51.036;17.058;2024-02-26T09:32:13;16.20;;;8.20;;
68310;SDS011;55157;51.036;17.058;2024-02-26T09:34:39;11.80;;;8.73;;
68310;SDS011;55157;51.036;17.058;2024-02-26T09:37:04;13.77;;;8.63;;
68310;SDS011;55157;51.036;17.058;2024-02-26T09:39:30;11.88;;;8.32;;
68310;SDS011;55157;51.036;17.058;2024-02-26T09:41:56;11.80;;;7.82;;
68310;SDS011;55157;51.036;17.058;2024-02-26T09:44:22;11.77;;;7.05;;
68310;SDS011;55157;51.036;17.058;2024-02-26T09:46:47;11.98;;;7.05;;
68310;SDS011;55157;51.036;17.058;2024-02-26T09:49:13;22.50;;;8.82;;
68310;SDS011;55157;51.036;17.058;2024-02-26T09:51:40;19.98;;;8.05;;
68310;SDS011;55157;51.036;17.058;2024-02-26T09:54:05;10.73;;;7.15;;
68310;SDS011;55157;51.036;17.058;2024-02-26T09:56:32;10.57;;;7.55;;
68310;SDS011;55157;51.036;17.058;2024-02-26T09:58:58;15.15;;;6.97;;
68310;SDS011;55157;51.036;17.058;2024-02-26T10:01:24;14.10;;;6.65;;
68310;SDS011;55157;51.036;17.058;2024-02-26T10:03:51;13.00;;;6.38;;
68310;SDS011;55157;51.036;17.058;2024-02-26T10:06:18;8.43;;;5.97;;
68310;SDS011;55157;51.036;17.058;2024-02-26T10:08:44;10.27;;;6.30;;
68310;SDS011;55157;51.036;17.058;2024-02-26T10:11:10;9.95;;;5.97;;
68310;SDS011;55157;51.036;17.058;2024-02-26T10:13:35;11.23;;;6.03;;
68310;SDS011;55157;51.036;17.058;2024-02-26T10:16:02;10.88;;;5.78;;
68310;SDS011;55157;51.036;17.058;2024-02-26T10:18:27;12.00;;;5.32;;
68310;SDS011;55157;51.036;17.058;2024-02-26T10:20:58;10.18;;;6.30;;
68310;SDS011;55157;51.036;17.058;2024-02-26T10:23:25;13.73;;;6.35;;
68310;SDS011;55157;51.036;17.058;2024-02-26T10:25:52;9.57;;;6.07;;
68310;SDS011;55157;51.036;17.058;2024-02-26T10:28:17;12.18;;;5.80;;
68310;SDS011;55157;51.036;17.058;2024-02-26T10:30:43;11.20;;;5.20;;
68310;SDS011;55157;51.036;17.058;2024-02-26T10:33:10;20.63;;;6.50;;
68310;SDS011;55157;51.036;17.058;2024-02-26T10:35:35;14.70;;;6.80;;
68310;SDS011;55157;51.036;17.058;2024-02-26T10:38:00;11.77;;;6.97;;
68310;SDS011;55157;51.036;17.058;2024-02-26T10:40:25;14.27;;;6.43;;
68310;SDS011;55157;51.036;17.058;2024-02-26T10:42:51;10.68;;;6.38;;
68310;SDS011;55157;51.036;17.058;2024-02-26T10:45:16;12.52;;;6.57;;
68310;SDS011;55157;51.036;17.058;2024-02-26T10:47:41;11.70;;;6.72;;
68310;SDS011;55157;51.036;17.058;2024-02-26T10:50:08;13.63;;;7.07;;
68310;SDS011;55157;51.036;17.058;2024-02-26T10:52:34;17.83;;;6.60;;
68310;SDS011;55157;51.036;17.058;2024-02-26T10:55:00;11.88;;;6.38;;
68310;SDS011;55157;51.036;17.058;2024-02-26T10:57:26;11.30;;;6.22;;
68310;SDS011;55157;51.036;17.058;2024-02-26T10:59:52;14.20;;;6.85;;
68310;SDS011;55157;51.036;17.058;2024-02-26T11:02:18;12.90;;;6.00;;
68310;SDS011;55157;51.036;17.058;2024-02-26T11:04:44;11.90;;;5.78;;
68310;SDS011;55157;51.036;17.058;2024-02-26T11:07:10;8.27;;;5.47;;
68310;SDS011;55157;51.036;17.058;2024-02-26T11:09:36;10.20;;;5.90;;
68310;SDS011;55157;51.036;17.058;2024-02-26T11:12:02;8.27;;;5.45;;
68310;SDS011;55157;51.036;17.058;2024-02-26T11:14:27;8.95;;;4.65;;
68310;SDS011;55157;51.036;17.058;2024-02-26T11:16:54;8.75;;;4.13;;
68310;SDS011;55157;51.036;17.058;2024-02-26T11:19:20;8.23;;;4.60;;
68310;SDS011;55157;51.036;17.058;2024-02-26T11:21:46;7.50;;;3.90;;
68310;SDS011;55157;51.036;17.058;2024-02-26T11:24:13;7.70;;;3.65;;
68310;SDS011;55157;51.036;17.058;2024-02-26T11:26:40;4.00;;;2.75;;
68310;SDS011;55157;51.036;17.058;2024-02-26T11:29:07;7.15;;;2.92;;
68310;SDS011;55157;51.036;17.058;2024-02-26T11:31:33;12.02;;;3.33;;
68310;SDS011;55157;51.036;17.058;2024-02-26T11:33:58;10.55;;;2.97;;
68310;SDS011;55157;51.036;17.058;2024-02-26T11:36:24;8.20;;;2.90;;
68310;SDS011;55157;51.036;17.058;2024-02-26T11:38:49;11.63;;;4.00;;
68310;SDS011;55157;51.036;17.058;2024-02-26T11:41:16;10.60;;;3.13;;
68310;SDS011;55157;51.036;17.058;2024-02-26T11:43:51;4.82;;;2.65;;
68310;SDS011;55157;51.036;17.058;2024-02-26T11:46:26;9.65;;;3.10;;
68310;SDS011;55157;51.036;17.058;2024-02-26T11:48:53;7.95;;;2.97;;
68310;SDS011;55157;51.036;17.058;2024-02-26T11:51:19;12.10;;;4.47;;
68310;SDS011;55157;51.036;17.058;2024-02-26T11:53:49;3.92;;;2.15;;
68310;SDS011;55157;51.036;17.058;2024-02-26T11:56:23;8.88;;;3.33;;
68310;SDS011;55157;51.036;17.058;2024-02-26T11:58:48;10.43;;;3.22;;
68310;SDS011;55157;51.036;17.058;2024-02-26T12:03:57;5.47;;;2.65;;
68310;SDS011;55157;51.036;17.058;2024-02-26T12:06:23;5.72;;;3.08;;
68310;SDS011;55157;51.036;17.058;2024-02-26T12:08:49;5.53;;;2.85;;
68310;SDS011;55157;51.036;17.058;2024-02-26T12:11:14;4.32;;;2.42;;
68310;SDS011;55157;51.036;17.058;2024-02-26T12:13:41;9.13;;;2.60;;
68310;SDS011;55157;51.036;17.058;2024-02-26T12:16:07;3.95;;;2.40;;
68310;SDS011;55157;51.036;17.058;2024-02-26T12:18:32;4.10;;;2.60;;
68310;SDS011;55157;51.036;17.058;2024-02-26T12:20:59;10.55;;;2.58;;
68310;SDS011;55157;51.036;17.058;2024-02-26T12:23:25;6.53;;;3.05;;
68310;SDS011;55157;51.036;17.058;2024-02-26T12:25:50;13.02;;;2.63;;
68310;SDS011;55157;51.036;17.058;2024-02-26T12:28:15;5.68;;;2.65;;
68310;SDS011;55157;51.036;17.058;2024-02-26T12:30:42;7.85;;;2.80;;
68310;SDS011;55157;51.036;17.058;2024-02-26T12:33:07;9.90;;;2.85;;
68310;SDS011;55157;51.036;17.058;2024-02-26T12:35:33;7.70;;;2.80;;
68310;SDS011;55157;51.036;17.058;2024-02-26T12:37:58;5.03;;;2.25;;
68310;SDS011;55157;51.036;17.058;2024-02-26T12:40:23;5.85;;;2.92;;
68310;SDS011;55157;51.036;17.058;2024-02-26T12:42:49;5.20;;;2.65;;
68310;SDS011;55157;51.036;17.058;2024-02-26T12:45:14;8.00;;;3.22;;
68310;SDS011;55157;51.036;17.058;2024-02-26T12:47:41;5.25;;;3.17;;
68310;SDS011;55157;51.036;17.058;2024-02-26T12:50:07;9.40;;;3.53;;
68310;SDS011;55157;51.036;17.058;2024-02-26T12:52:33;12.65;;;3.00;;
68310;SDS011;55157;51.036;17.058;2024-02-26T12:54:58;4.00;;;2.47;;
68310;SDS011;55157;51.036;17.058;2024-02-26T12:57:24;6.75;;;2.45;;
68310;SDS011;55157;51.036;17.058;2024-02-26T12:59:49;7.35;;;2.83;;
68310;SDS011;55157;51.036;17.058;2024-02-26T13:02:15;10.20;;;3.00;;
68310;SDS011;55157;51.036;17.058;2024-02-26T13:04:42;5.95;;;2.85;;
68310;SDS011;55157;51.036;17.058;2024-02-26T13:07:07;5.40;;;3.40;;
68310;SDS011;55157;51.036;17.058;2024-02-26T13:09:32;5.93;;;2.72;;
68310;SDS011;55157;51.036;17.058;2024-02-26T13:11:58;10.52;;;3.65;;
68310;SDS011;55157;51.036;17.058;2024-02-26T13:14:23;8.13;;;2.85;;
68310;SDS011;55157;51.036;17.058;2024-02-26T13:16:54;6.22;;;3.03;;
68310;SDS011;55157;51.036;17.058;2024-02-26T13:19:19;6.50;;;3.92;;
68310;SDS011;55157;51.036;17.058;2024-02-26T13:21:46;10.93;;;3.88;;
68310;SDS011;55157;51.036;17.058;2024-02-26T13:24:12;5.13;;;3.30;;
68310;SDS011;55157;51.036;17.058;2024-02-26T13:26:37;5.53;;;3.10;;
68310;SDS011;55157;51.036;17.058;2024-02-26T13:29:03;8.88;;;3.20;;
68310;SDS011;55157;51.036;17.058;2024-02-26T13:31:28;6.50;;;3.40;;
68310;SDS011;55157;51.036;17.058;2024-02-26T13:33:53;6.82;;;3.40;;
68310;SDS011;55157;51.036;17.058;2024-02-26T13:36:18;9.02;;;3.85;;
68310;SDS011;55157;51.036;17.058;2024-02-26T13:38:52;6.65;;;3.63;;
68310;SDS011;55157;51.036;17.058;2024-02-26T13:41:17;9.45;;;3.53;;
68310;SDS011;55157;51.036;17.058;2024-02-26T13:43:43;4.78;;;3.28;;
68310;SDS011;55157;51.036;17.058;2024-02-26T13:46:08;5.95;;;3.17;;
68310;SDS011;55157;51.036;17.058;2024-02-26T13:48:33;6.43;;;3.47;;
68310;SDS011;55157;51.036;17.058;2024-02-26T13:50:58;10.68;;;4.53;;
68310;SDS011;55157;51.036;17.058;2024-02-26T13:53:24;7.07;;;3.55;;
68310;SDS011;55157;51.036;17.058;2024-02-26T13:55:50;10.30;;;2.88;;
68310;SDS011;55157;51.036;17.058;2024-02-26T13:58:16;11.27;;;3.03;;
68310;SDS011;55157;51.036;17.058;2024-02-26T14:00:41;7.47;;;4.10;;
68310;SDS011;55157;51.036;17.058;2024-02-26T14:03:06;6.45;;;3.13;;
68310;SDS011;55157;51.036;17.058;2024-02-26T14:05:32;9.02;;;3.47;;
68310;SDS011;55157;51.036;17.058;2024-02-26T14:07:57;8.70;;;3.45;;
68310;SDS011;55157;51.036;17.058;2024-02-26T14:10:22;12.00;;;3.70;;